< < Back
Terminal Aerodrome Forecast


Current Version              Previous Versions:   1  2  3  4  5  6  7  8  9  

Terminal Aerodrome Forecast

491
FTUS42 KCAE 270127 AAA
TAFCAE
TAF AMD
KCAE 270127Z 2701/2724 22007KT P6SM VCTS BKN040 BKN070CB
      TEMPO 2701/2702 23012G20KT 4SM TSRA
     FM270300 VRB03KT P6SM OVC035
     FM270600 VRB03KT P6SM OVC015
     FM271000 VRB03KT 5SM BR OVC007
     FM271500 18005KT P6SM OVC025
     FM271800 22007KT P6SM VCTS BKN035 BKN100CB=

Latest METAR

507
SAUS80 KWBC 270100
MTRCAE
METAR KCAE 270056Z 27004KT 10SM SCT080 BKN150 23/18 A3019 RMK AO2 LTG
DSNT W AND NW SLP221 T02330183


USA.gov is the U.S. government's official web portal to all federal, state and local government web resources and services.